Time;durP1;ratioP1;P1;durP2;ratioP2;P2;SDS_P1;SDS_P2;PMS_P1;PMS_P2;Temp;Humidity;BMP_temperature;BMP_pressure;BME280_temperature;BME280_humidity;BME280_pressure;Samples;Min_cycle;Max_cycle;Signal;HPM_P1;HPM_P2
2021/12/20 00:02:01;;;;;;;1.70;0.90;;;;;;;-0.16;81.46;97330.11;102187;1317;61121;-22
2021/12/20 00:04:30;;;;;;;1.60;0.60;;;;;;;-0.29;81.76;97323.64;102388;1320;74762;-23
2021/12/20 00:06:58;;;;;;;1.60;0.80;;;;;;;-0.23;82.15;97334.70;102212;1313;76086;-23
2021/12/20 00:09:47;;;;;;;2.70;0.80;;;;;;;0.25;80.23;97348.13;102189;1314;75935;-22
2021/12/20 00:12:15;;;;;;;1.70;0.70;;;;;;;0.15;80.41;97345.37;102679;1310;62125;-22
2021/12/20 00:14:52;;;;;;;3.00;0.80;;;;;;;-0.20;81.18;97346.57;102512;1317;61062;-23
2021/12/20 00:17:20;;;;;;;2.00;0.90;;;;;;;-0.22;81.43;97351.52;102709;1317;75706;-22
2021/12/20 00:19:49;;;;;;;0.70;0.70;;;;;;;-0.30;82.01;97359.00;102515;1311;76125;-22
2021/12/20 00:22:37;;;;;;;0.90;0.60;;;;;;;-0.08;81.24;97358.61;102199;1311;74803;-22
2021/12/20 00:25:06;;;;;;;0.50;0.50;;;;;;;0.08;80.18;97352.79;102258;1314;61289;-22
2021/12/20 00:27:34;;;;;;;1.30;0.50;;;;;;;-0.01;80.35;97351.17;101997;1318;61204;-22
2021/12/20 00:30:04;;;;;;;0.40;0.40;;;;;;;-0.09;81.33;97361.05;102078;1320;74824;-23
2021/12/20 00:32:35;;;;;;;1.30;0.60;;;;;;;-0.37;81.79;97351.92;102012;1319;76395;-22
2021/12/20 00:35:04;;;;;;;1.50;0.40;;;;;;;-0.16;81.46;97363.58;102130;1317;74602;-22
2021/12/20 00:40:23;;;;;;;0.80;0.60;;;;;;;0.30;79.58;97358.21;102088;1311;61297;-22
2021/12/20 00:42:56;;;;;;;1.60;0.60;;;;;;;0.06;80.51;97362.30;102144;1317;75473;-22
2021/12/20 00:45:33;;;;;;;0.70;0.70;;;;;;;-0.29;81.34;97356.53;101927;1316;76117;-22
2021/12/20 00:48:06;;;;;;;0.60;0.40;;;;;;;-0.40;81.73;97346.14;102310;1314;73500;-23
2021/12/20 00:50:41;;;;;;;1.00;0.40;;;;;;;-0.20;80.90;97335.16;102312;1318;61086;-22
2021/12/20 00:53:09;;;;;;;1.30;0.70;;;;;;;0.07;80.44;97356.30;102329;1317;61892;-22
2021/12/20 00:55:38;;;;;;;0.30;0.30;;;;;;;-0.06;80.28;97354.43;102686;1317;74786;-22
2021/12/20 00:58:06;;;;;;;1.60;0.60;;;;;;;-0.13;80.59;97360.85;102732;1311;76096;-22
2021/12/20 01:00:39;;;;;;;0.90;0.60;;;;;;;-0.39;81.37;97359.60;102645;1310;74191;-22
2021/12/20 01:03:08;;;;;;;1.50;0.70;;;;;;;-0.41;81.98;97373.83;102201;1316;61795;-25
2021/12/20 01:05:40;;;;;;;2.70;0.80;;;;;;;-0.00;80.19;97377.76;102676;1314;62123;-26
2021/12/20 01:08:09;;;;;;;0.70;0.60;;;;;;;-0.05;80.09;97377.17;102334;1311;75675;-25
2021/12/20 01:10:43;;;;;;;0.60;0.60;;;;;;;-0.10;80.39;97376.16;102487;1317;76086;-24
2021/12/20 01:13:13;;;;;;;1.30;0.50;;;;;;;-0.31;81.04;97371.17;102184;1314;74495;-25
2021/12/20 01:15:47;;;;;;;0.90;0.70;;;;;;;-0.60;82.03;97362.58;102223;1311;62097;-23
2021/12/20 01:18:15;;;;;;;0.40;0.40;;;;;;;-0.24;81.08;97378.55;102676;1308;61221;-26
2021/12/20 01:20:44;;;;;;;1.00;0.40;;;;;;;-0.13;80.87;97379.59;102283;1317;72567;-26
2021/12/20 01:23:12;;;;;;;1.50;0.60;;;;;;;-0.08;80.96;97382.38;102321;1314;76335;-26
2021/12/20 01:26:00;;;;;;;0.70;0.70;;;;;;;-0.28;81.60;97382.92;102470;1317;75698;-24
2021/12/20 01:28:29;;;;;;;0.80;0.50;;;;;;;-0.39;81.87;97376.64;102119;1318;61097;-23
2021/12/20 01:30:57;;;;;;;1.50;0.60;;;;;;;-0.08;80.99;97368.88;102165;1314;61172;-24
2021/12/20 01:33:26;;;;;;;0.50;0.50;;;;;;;0.06;79.83;97374.91;102292;1314;74139;-24
2021/12/20 01:35:56;;;;;;;5.10;1.20;;;;;;;0.08;79.55;97379.24;102149;1317;76232;-24
2021/12/20 01:38:25;;;;;;;1.20;0.50;;;;;;;-0.11;80.35;97382.69;102144;1319;74439;-24
2021/12/20 01:40:54;;;;;;;0.70;0.60;;;;;;;-0.29;80.93;97386.20;102660;1310;61345;-24
2021/12/20 01:43:22;;;;;;;0.70;0.60;;;;;;;-0.62;81.38;97370.70;102679;1311;61212;-24
2021/12/20 01:45:52;;;;;;;0.80;0.50;;;;;;;-0.28;80.63;97374.41;102626;1314;75572;-24
2021/12/20 01:48:22;;;;;;;2.50;0.60;;;;;;;-0.18;80.33;97375.44;102688;1316;76090;-24
2021/12/20 01:53:35;;;;;;;2.10;0.50;;;;;;;-0.29;79.98;97370.17;102293;1318;61252;-24
2021/12/20 01:56:04;;;;;;;0.70;0.70;;;;;;;-0.47;80.80;97371.65;102052;1317;63336;-24
2021/12/20 01:58:33;;;;;;;1.70;0.90;;;;;;;-0.51;81.47;97377.86;101772;1316;72770;-24
2021/12/20 02:03:46;;;;;;;0.90;0.60;;;;;;;0.01;78.86;97373.54;102136;1317;74498;-24
2021/12/20 02:06:26;;;;;;;0.80;0.80;;;;;;;-0.35;79.52;97361.70;102039;1318;61419;-24
2021/12/20 02:08:59;;;;;;;1.30;0.50;;;;;;;-0.26;79.58;97371.05;102149;1317;62097;-24
2021/12/20 02:11:28;;;;;;;0.90;0.70;;;;;;;-0.46;80.66;97374.86;102103;1318;72919;-24
2021/12/20 02:13:57;;;;;;;1.00;0.60;;;;;;;-0.28;80.38;97371.46;102254;1317;74617;-23
2021/12/20 02:16:26;;;;;;;1.30;0.60;;;;;;;-0.04;79.42;97374.89;102179;1319;74503;-24
2021/12/20 02:18:54;;;;;;;0.60;0.40;;;;;;;-0.16;79.49;97363.23;102368;1317;62417;-24
2021/12/20 02:21:24;;;;;;;1.20;0.60;;;;;;;-0.23;79.75;97374.57;102363;1317;61081;-24
2021/12/20 02:23:52;;;;;;;1.50;0.70;;;;;;;-0.46;80.46;97364.60;102656;1317;74811;-24
2021/12/20 02:26:24;;;;;;;0.80;0.70;;;;;;;-0.58;81.23;97368.28;102156;1319;75216;-24
2021/12/20 02:28:56;;;;;;;0.70;0.50;;;;;;;-0.39;80.30;97361.28;102137;1318;74462;-24
2021/12/20 02:39:29;;;;;;;0.90;0.50;;;;;;;-0.68;80.39;97362.43;102352;1317;75866;-24
2021/12/20 02:41:58;;;;;;;0.30;0.30;;;;;;;-0.48;79.50;97364.23;101948;1317;74481;-24
2021/12/20 02:44:28;;;;;;;0.80;0.50;;;;;;;-0.17;78.40;97358.15;102346;1311;61881;-23
2021/12/20 02:49:26;;;;;;;1.00;0.60;;;;;;;-0.53;80.06;97363.84;102318;1314;75787;-24
2021/12/20 02:52:03;;;;;;;3.40;0.50;;;;;;;-0.68;80.60;97367.53;102196;1313;75462;-24
2021/12/20 02:54:31;;;;;;;0.70;0.50;;;;;;;-0.64;79.97;97373.06;102021;1320;74421;-24
2021/12/20 02:56:59;;;;;;;0.70;0.40;;;;;;;-0.15;78.35;97381.39;102299;1317;61815;-24
2021/12/20 02:59:28;;;;;;;1.10;0.50;;;;;;;-0.12;78.18;97380.38;102186;1314;61471;-25
2021/12/20 03:01:59;;;;;;;1.00;0.60;;;;;;;-0.33;78.16;97363.96;102519;1317;75562;-23
2021/12/20 03:04:27;;;;;;;1.10;0.40;;;;;;;-0.53;79.38;97385.33;102151;1318;76012;-24
2021/12/20 03:06:58;;;;;;;1.50;0.40;;;;;;;-0.59;80.12;97381.98;102650;1314;73476;-24
2021/12/20 03:09:30;;;;;;;0.70;0.50;;;;;;;-0.48;79.66;97380.45;102277;1313;61201;-24
2021/12/20 03:11:59;;;;;;;0.20;0.20;;;;;;;-0.32;78.92;97389.64;102342;1313;62094;-24
2021/12/20 03:14:33;;;;;;;1.00;0.60;;;;;;;-0.13;78.17;97390.48;102264;1317;75769;-24
2021/12/20 03:17:02;;;;;;;2.00;0.80;;;;;;;-0.46;78.71;97391.05;102161;1317;76209;-24
2021/12/20 03:19:30;;;;;;;2.40;0.70;;;;;;;-0.63;79.60;97395.16;102095;1313;73442;-24
2021/12/20 03:22:01;;;;;;;0.80;0.40;;;;;;;-0.70;79.80;97403.63;102605;1317;61207;-24
2021/12/20 03:24:36;;;;;;;0.60;0.60;;;;;;;-0.55;78.91;97395.34;102277;1317;61182;-24
2021/12/20 03:27:05;;;;;;;7.10;0.80;;;;;;;-0.32;78.40;97414.70;102371;1317;75825;-24
2021/12/20 03:29:34;;;;;;;0.70;0.50;;;;;;;-0.36;78.09;97398.94;101757;1315;74402;-24
2021/12/20 03:32:02;;;;;;;0.90;0.60;;;;;;;-0.55;78.68;97406.95;102317;1313;74361;-23
2021/12/20 03:34:33;;;;;;;0.60;0.60;;;;;;;-0.63;79.45;97412.89;102082;1317;61319;-24
2021/12/20 03:37:01;;;;;;;0.50;0.40;;;;;;;-0.76;79.84;97407.88;102178;1310;61789;-24
2021/12/20 03:39:30;;;;;;;0.90;0.40;;;;;;;-0.46;78.93;97404.33;102108;1313;75624;-24
2021/12/20 03:41:58;;;;;;;0.50;0.40;;;;;;;-0.22;77.74;97415.10;102448;1314;74097;-24
2021/12/20 03:44:32;;;;;;;2.60;0.60;;;;;;;-0.30;78.14;97413.91;102348;1317;74222;-24
2021/12/20 03:47:00;;;;;;;0.50;0.50;;;;;;;-0.56;78.76;97410.40;102306;1318;61243;-23
2021/12/20 03:49:29;;;;;;;1.10;0.90;;;;;;;-0.74;79.77;97405.75;102327;1314;61173;-24
2021/12/20 03:51:57;;;;;;;1.10;0.60;;;;;;;-0.60;79.18;97406.74;102583;1310;74840;-23
2021/12/20 03:54:26;;;;;;;0.80;0.50;;;;;;;-0.36;78.39;97409.66;102354;1311;75193;-23
2021/12/20 03:56:54;;;;;;;1.80;0.40;;;;;;;-0.31;77.78;97414.15;102170;1314;72932;-23
2021/12/20 03:59:23;;;;;;;0.90;0.40;;;;;;;-0.33;78.06;97423.65;102206;1317;61212;-23
2021/12/20 04:01:51;;;;;;;0.90;0.50;;;;;;;-0.49;78.18;97416.28;102272;1311;62148;-23
2021/12/20 04:04:19;;;;;;;0.70;0.30;;;;;;;-0.58;78.93;97424.34;102230;1314;75338;-23
2021/12/20 04:06:48;;;;;;;1.30;0.30;;;;;;;-0.62;79.18;97426.64;101881;1317;76106;-23
2021/12/20 04:09:16;;;;;;;0.90;0.50;;;;;;;-0.27;77.34;97418.50;101989;1317;73488;-23
2021/12/20 04:11:44;;;;;;;0.80;0.60;;;;;;;-0.27;77.08;97416.09;102351;1311;61138;-24
2021/12/20 04:14:13;;;;;;;1.00;0.50;;;;;;;-0.36;76.68;97418.02;102620;1310;61062;-23
2021/12/20 04:16:41;;;;;;;1.10;0.60;;;;;;;-0.40;76.96;97420.87;102559;1314;75639;-25
2021/12/20 04:19:10;;;;;;;1.80;1.30;;;;;;;-0.68;77.90;97426.34;102326;1310;74919;-23
2021/12/20 04:21:38;;;;;;;0.30;0.30;;;;;;;-0.70;78.60;97433.60;102126;1316;74228;-23
2021/12/20 04:24:07;;;;;;;1.30;0.60;;;;;;;-0.41;77.29;97432.36;102610;1314;61277;-23
2021/12/20 04:26:36;;;;;;;1.10;0.70;;;;;;;-0.21;76.23;97423.23;102567;1314;61148;-25
2021/12/20 04:29:06;;;;;;;0.60;0.50;;;;;;;-0.19;76.47;97434.88;102438;1314;74443;-25
2021/12/20 04:31:36;;;;;;;0.60;0.40;;;;;;;-0.48;77.23;97427.63;102579;1317;75925;-24
2021/12/20 04:34:05;;;;;;;0.50;0.40;;;;;;;-0.48;77.32;97432.63;102645;1311;74412;-24
2021/12/20 04:36:34;;;;;;;1.20;0.40;;;;;;;-0.74;77.68;97431.62;102338;1317;61245;-24
2021/12/20 04:39:04;;;;;;;0.80;0.40;;;;;;;-0.70;77.69;97439.08;102394;1314;61252;-24
2021/12/20 04:41:33;;;;;;;1.70;0.60;;;;;;;-0.21;75.63;97438.26;102221;1314;75620;-24
2021/12/20 04:44:01;;;;;;;1.50;0.50;;;;;;;-0.20;75.21;97435.78;102590;1314;76131;-24
2021/12/20 04:46:30;;;;;;;1.20;0.60;;;;;;;-0.30;74.83;97435.21;102335;1313;72644;-24
2021/12/20 04:48:58;;;;;;;0.40;0.40;;;;;;;-0.46;75.73;97442.52;102299;1313;61622;-24
2021/12/20 04:51:27;;;;;;;0.90;0.30;;;;;;;-0.60;76.37;97451.92;102653;1314;61159;-24
2021/12/20 04:53:55;;;;;;;1.40;0.50;;;;;;;-0.72;76.76;97456.23;102613;1318;75763;-24
2021/12/20 04:56:24;;;;;;;0.40;0.40;;;;;;;-0.62;76.09;97459.04;102644;1317;75999;-24
2021/12/20 04:58:52;;;;;;;0.80;0.50;;;;;;;-0.28;74.65;97441.95;102595;1314;74572;-24
2021/12/20 05:01:20;;;;;;;0.80;0.40;;;;;;;-0.15;74.35;97452.42;102340;1314;61130;-24
2021/12/20 05:03:49;;;;;;;0.60;0.40;;;;;;;-0.36;74.83;97456.27;102224;1310;61220;-24
2021/12/20 05:06:17;;;;;;;0.50;0.40;;;;;;;-0.55;76.03;97456.19;102627;1310;76055;-24
2021/12/20 05:08:49;;;;;;;2.20;0.70;;;;;;;-0.77;77.21;97454.13;102615;1310;76066;-24
2021/12/20 05:11:20;;;;;;;0.90;0.40;;;;;;;-0.96;78.00;97451.70;102646;1317;75448;-24
2021/12/20 05:13:48;;;;;;;1.00;0.70;;;;;;;-0.77;77.94;97452.96;102615;1317;61192;-24
2021/12/20 05:16:16;;;;;;;4.30;0.50;;;;;;;-0.45;77.67;97463.26;102628;1311;61049;-24
2021/12/20 05:18:46;;;;;;;0.40;0.40;;;;;;;-0.41;77.24;97460.30;102263;1310;74656;-23
2021/12/20 05:21:16;;;;;;;0.70;0.50;;;;;;;-0.63;78.26;97469.81;102612;1314;76215;-24
2021/12/20 05:23:44;;;;;;;0.40;0.40;;;;;;;-0.88;79.53;97468.77;102637;1310;74266;-24
2021/12/20 05:26:13;;;;;;;0.70;0.40;;;;;;;-0.84;79.58;97475.89;102248;1314;61185;-24
2021/12/20 05:28:41;;;;;;;1.40;0.60;;;;;;;-0.64;78.99;97465.97;102633;1311;62245;-24
2021/12/20 05:31:09;;;;;;;0.50;0.40;;;;;;;-0.39;77.67;97457.94;102672;1314;75595;-23
2021/12/20 05:33:38;;;;;;;0.70;0.40;;;;;;;-0.32;77.47;97460.07;102259;1313;75640;-24
2021/12/20 05:36:06;;;;;;;1.60;0.60;;;;;;;-0.37;77.95;97463.63;102681;1317;74459;-24
2021/12/20 05:38:48;;;;;;;0.90;0.40;;;;;;;-0.58;78.50;97474.33;102636;1310;61565;-24
2021/12/20 05:41:16;;;;;;;1.90;0.70;;;;;;;-0.70;78.89;97477.71;102674;1310;61218;-24
2021/12/20 05:43:53;;;;;;;0.60;0.50;;;;;;;-0.62;78.84;97470.59;102593;1310;75409;-24
2021/12/20 05:46:21;;;;;;;0.30;0.30;;;;;;;-0.24;76.99;97465.55;102593;1317;76291;-24
2021/12/20 05:48:50;;;;;;;0.20;0.20;;;;;;;-0.06;76.19;97462.21;102173;1317;73554;-24
2021/12/20 05:51:18;;;;;;;1.20;0.70;;;;;;;-0.19;76.43;97462.49;102149;1314;61101;-24
2021/12/20 05:54:14;;;;;;;0.40;0.40;;;;;;;-0.49;77.23;97456.00;98915;1352;600317;-23
2021/12/20 05:56:42;;;;;;;0.70;0.50;;;;;;;-0.57;77.24;97464.30;101280;1326;61199;-24
2021/12/20 05:59:11;;;;;;;2.00;0.60;;;;;;;-0.78;79.01;97468.50;101202;1329;61142;-23
2021/12/20 06:01:39;;;;;;;0.50;0.40;;;;;;;-0.71;78.97;97470.95;101303;1329;72330;-23
2021/12/20 06:04:07;;;;;;;3.80;0.40;;;;;;;-0.29;76.82;97463.66;101257;1325;75876;-24
2021/12/20 06:06:37;;;;;;;0.80;0.60;;;;;;;-0.27;76.35;97471.04;101178;1328;73767;-24
2021/12/20 06:09:05;;;;;;;1.00;0.60;;;;;;;-0.38;77.02;97466.45;101038;1326;61217;-24
2021/12/20 06:11:34;;;;;;;0.80;0.60;;;;;;;-0.58;77.84;97467.10;101215;1325;61212;-24
2021/12/20 06:14:02;;;;;;;0.80;0.40;;;;;;;-0.84;78.92;97464.94;101474;1322;73761;-24
2021/12/20 06:16:39;;;;;;;0.60;0.50;;;;;;;-0.84;78.83;97464.10;101487;1322;75797;-24
2021/12/20 06:19:08;;;;;;;0.90;0.40;;;;;;;-0.47;77.48;97467.17;101440;1322;74507;-24
2021/12/20 06:21:37;;;;;;;0.70;0.60;;;;;;;-0.42;76.91;97471.27;101430;1328;61270;-24
2021/12/20 06:24:06;;;;;;;1.20;0.50;;;;;;;-0.30;76.32;97482.13;101416;1323;61119;-24
2021/12/20 06:26:34;;;;;;;1.30;0.50;;;;;;;-0.47;77.47;97483.17;101788;1319;73351;-24
2021/12/20 06:29:02;;;;;;;0.60;0.40;;;;;;;-0.73;78.04;97484.34;101889;1317;75887;-24
2021/12/20 06:31:31;;;;;;;0.60;0.50;;;;;;;-0.77;78.17;97482.92;101868;1317;74649;-24
2021/12/20 06:34:00;;;;;;;2.20;0.70;;;;;;;-0.68;78.32;97476.91;101879;1320;61942;-25
2021/12/20 06:36:30;;;;;;;0.50;0.50;;;;;;;-0.23;76.89;97492.60;101727;1316;61179;-24
2021/12/20 06:38:58;;;;;;;0.30;0.30;;;;;;;-0.27;76.75;97492.86;101706;1317;75181;-24
2021/12/20 06:41:27;;;;;;;1.20;0.80;;;;;;;-0.34;77.33;97501.79;101666;1317;74195;-24
2021/12/20 06:43:56;;;;;;;1.00;0.50;;;;;;;-0.55;78.31;97501.23;101489;1317;74228;-24
2021/12/20 06:46:25;;;;;;;1.30;0.50;;;;;;;-0.67;78.58;97494.62;101872;1317;61349;-27
2021/12/20 06:48:53;;;;;;;0.40;0.40;;;;;;;-0.68;79.21;97503.51;101945;1316;61915;-25
2021/12/20 06:51:21;;;;;;;0.80;0.60;;;;;;;-0.18;77.43;97506.16;101706;1316;74109;-25
2021/12/20 06:53:49;;;;;;;1.70;0.60;;;;;;;-0.20;77.16;97506.94;101607;1317;76137;-25
2021/12/20 06:56:18;;;;;;;1.30;0.60;;;;;;;-0.43;78.19;97516.48;101796;1317;74134;-24
2021/12/20 06:58:46;;;;;;;0.90;0.60;;;;;;;-0.59;78.75;97514.56;101863;1317;61179;-24
2021/12/20 07:01:14;;;;;;;1.20;0.60;;;;;;;-0.74;79.45;97518.72;101890;1316;61860;-27
2021/12/20 07:03:43;;;;;;;0.50;0.50;;;;;;;-0.81;80.20;97520.96;101907;1316;73683;-25
2021/12/20 07:06:11;;;;;;;0.80;0.50;;;;;;;-0.54;79.67;97527.73;101952;1320;75914;-27
2021/12/20 07:08:41;;;;;;;0.70;0.70;;;;;;;-0.18;78.20;97532.07;101789;1317;73058;-25
2021/12/20 07:11:10;;;;;;;0.40;0.40;;;;;;;-0.29;77.94;97525.36;101786;1317;61767;-24
2021/12/20 07:13:39;;;;;;;0.60;0.60;;;;;;;-0.40;78.91;97533.54;101946;1317;61914;-22
2021/12/20 07:16:07;;;;;;;0.50;0.50;;;;;;;-0.48;78.97;97524.52;101920;1316;73149;-22
2021/12/20 07:18:35;;;;;;;0.50;0.50;;;;;;;-0.52;79.80;97534.96;101814;1317;76140;-22
2021/12/20 07:21:07;;;;;;;1.20;0.90;;;;;;;-0.54;79.77;97535.94;101868;1317;74353;-22
2021/12/20 07:23:36;;;;;;;1.40;0.70;;;;;;;-0.04;78.30;97532.56;101914;1316;61129;-22
2021/12/20 07:26:07;;;;;;;1.20;0.70;;;;;;;-0.10;78.35;97537.70;101909;1316;61102;-25
2021/12/20 07:28:35;;;;;;;0.80;0.60;;;;;;;-0.33;79.49;97536.55;101562;1323;73730;-24
2021/12/20 07:31:04;;;;;;;1.90;0.90;;;;;;;-0.50;79.79;97545.05;101954;1316;75112;-24
2021/12/20 07:33:33;;;;;;;1.50;0.90;;;;;;;-0.67;80.92;97542.13;101916;1316;74364;-24
2021/12/20 07:36:01;;;;;;;1.60;1.00;;;;;;;-0.91;81.66;97534.51;101864;1317;61735;-23
2021/12/20 07:38:29;;;;;;;4.30;1.10;;;;;;;-0.29;79.63;97544.13;101906;1316;62086;-23
2021/12/20 07:40:57;;;;;;;1.40;1.10;;;;;;;-0.09;78.58;97544.27;101800;1321;73899;-23
2021/12/20 07:43:26;;;;;;;2.50;1.00;;;;;;;-0.33;77.83;97534.84;101755;1317;75827;-23
2021/12/20 07:45:54;;;;;;;1.80;1.10;;;;;;;-0.45;78.34;97537.95;101908;1316;74193;-23
2021/12/20 07:48:22;;;;;;;1.70;1.20;;;;;;;-0.53;79.65;97550.56;101940;1316;61151;-23
2021/12/20 07:50:51;;;;;;;2.00;1.10;;;;;;;-0.62;80.47;97555.35;101872;1319;61848;-23
2021/12/20 07:53:20;;;;;;;1.70;0.80;;;;;;;-0.30;79.56;97554.93;101913;1321;73494;-23
2021/12/20 07:55:48;;;;;;;2.00;1.20;;;;;;;0.09;77.76;97555.46;101919;1316;76116;-23
2021/12/20 07:58:16;;;;;;;0.80;0.60;;;;;;;0.24;77.76;97556.92;101845;1319;74434;-23
2021/12/20 08:00:44;;;;;;;2.30;1.40;;;;;;;0.49;76.87;97557.95;101918;1317;61624;-23
2021/12/20 08:03:12;;;;;;;2.10;1.10;;;;;;;0.02;77.42;97555.53;101893;1317;61993;-23
2021/12/20 08:05:42;;;;;;;1.60;0.90;;;;;;;-0.06;78.08;97564.95;101838;1317;74453;-23
2021/12/20 08:08:11;;;;;;;2.50;1.60;;;;;;;-0.26;78.82;97563.05;101950;1317;75131;-23
2021/12/20 08:10:59;;;;;;;3.10;1.40;;;;;;;-0.27;79.28;97558.86;101831;1317;74751;-23
2021/12/20 08:13:27;;;;;;;2.00;1.10;;;;;;;0.06;77.87;97557.73;101893;1315;61422;-23
2021/12/20 08:15:56;;;;;;;1.50;0.90;;;;;;;0.38;76.47;97551.09;101920;1315;61176;-23
2021/12/20 08:18:37;;;;;;;2.90;1.10;;;;;;;0.21;77.06;97557.66;101888;1316;74592;-23
2021/12/20 08:21:05;;;;;;;1.60;0.90;;;;;;;0.42;76.01;97553.61;101786;1319;76068;-23
2021/12/20 08:23:34;;;;;;;0.90;0.70;;;;;;;0.17;75.97;97547.48;101892;1319;74472;-23
2021/12/20 08:26:03;;;;;;;4.40;1.00;;;;;;;-0.04;76.98;97551.17;101941;1319;61392;-23
2021/12/20 08:28:32;;;;;;;2.80;1.00;;;;;;;-0.09;77.18;97550.77;101811;1319;62194;-23
2021/12/20 08:31:00;;;;;;;1.50;0.80;;;;;;;-0.34;77.91;97556.55;101925;1320;73907;-23
2021/12/20 08:33:32;;;;;;;1.50;1.00;;;;;;;-0.37;78.51;97554.37;101765;1316;76046;-23
2021/12/20 08:36:01;;;;;;;2.20;0.90;;;;;;;-0.01;76.84;97552.48;101864;1317;74620;-24
2021/12/20 08:38:30;;;;;;;2.40;1.00;;;;;;;0.00;75.83;97550.22;101756;1323;61218;-23
2021/12/20 08:41:02;;;;;;;4.60;1.30;;;;;;;0.05;76.05;97550.45;101730;1316;61153;-23
2021/12/20 08:43:33;;;;;;;3.40;0.80;;;;;;;-0.10;76.55;97551.84;101725;1316;74961;-23
2021/12/20 08:46:02;;;;;;;1.30;1.00;;;;;;;-0.19;77.37;97551.77;101750;1319;75850;-23
2021/12/20 08:48:31;;;;;;;1.60;1.10;;;;;;;-0.35;77.74;97554.04;101892;1315;74755;-23
2021/12/20 08:51:01;;;;;;;1.30;0.80;;;;;;;-0.49;78.72;97553.88;101884;1319;61224;-23
2021/12/20 08:53:30;;;;;;;1.30;0.90;;;;;;;-0.53;78.54;97556.70;101716;1316;61167;-23
2021/12/20 08:56:00;;;;;;;1.10;0.90;;;;;;;-0.28;77.45;97545.95;101749;1315;74213;-23
2021/12/20 08:58:31;;;;;;;1.20;0.70;;;;;;;-0.03;76.65;97549.06;101737;1317;73585;-23
2021/12/20 09:00:59;;;;;;;1.90;0.90;;;;;;;-0.07;76.52;97540.08;101716;1317;74518;-23
2021/12/20 09:03:31;;;;;;;1.00;0.60;;;;;;;-0.25;77.34;97549.71;101923;1316;61558;-23
2021/12/20 09:06:00;;;;;;;1.10;0.80;;;;;;;-0.47;77.93;97551.18;101851;1317;61304;-22
2021/12/20 09:08:30;;;;;;;1.30;0.70;;;;;;;-0.55;78.81;97550.46;101924;1316;75028;-23
2021/12/20 09:11:04;;;;;;;1.50;0.90;;;;;;;-0.39;78.01;97548.33;101720;1317;76078;-23
2021/12/20 09:13:34;;;;;;;0.90;0.60;;;;;;;-0.02;76.61;97545.73;101908;1316;74226;-23
2021/12/20 09:16:04;;;;;;;1.00;0.60;;;;;;;0.10;75.96;97550.33;101713;1317;61156;-23
2021/12/20 09:18:32;;;;;;;1.60;0.60;;;;;;;-0.07;75.56;97546.41;101783;1319;61860;-23
2021/12/20 09:21:00;;;;;;;2.40;0.70;;;;;;;-0.30;76.21;97550.54;101932;1317;74579;-23
2021/12/20 09:23:31;;;;;;;1.00;0.70;;;;;;;-0.42;76.92;97543.55;101918;1320;76272;-23
2021/12/20 09:26:00;;;;;;;1.10;0.80;;;;;;;-0.43;77.33;97547.56;101758;1319;74534;-23
2021/12/20 09:28:28;;;;;;;0.80;0.60;;;;;;;-0.30;77.65;97551.05;101940;1316;61329;-23
2021/12/20 09:30:56;;;;;;;1.50;0.50;;;;;;;-0.40;77.49;97548.42;101724;1316;61999;-23
2021/12/20 09:33:25;;;;;;;1.70;0.80;;;;;;;0.02;75.88;97548.59;101766;1317;75094;-23
2021/12/20 09:35:54;;;;;;;0.70;0.60;;;;;;;0.23;75.48;97547.75;101903;1316;75150;-23
2021/12/20 09:38:22;;;;;;;0.60;0.50;;;;;;;0.43;74.69;97548.59;101952;1317;74813;-23
2021/12/20 09:41:12;;;;;;;0.70;0.70;;;;;;;0.50;74.97;97549.84;101833;1316;61601;-23
2021/12/20 09:43:47;;;;;;;1.00;0.70;;;;;;;0.46;75.39;97549.04;101588;1318;61217;-23
2021/12/20 09:46:16;;;;;;;2.30;1.10;;;;;;;0.64;74.04;97552.35;101668;1318;74914;-23
2021/12/20 09:48:45;;;;;;;1.30;0.70;;;;;;;0.55;74.34;97556.39;101743;1319;76041;-23
2021/12/20 09:51:14;;;;;;;0.80;0.80;;;;;;;0.57;73.93;97554.99;101900;1316;74072;-23
2021/12/20 09:53:42;;;;;;;0.70;0.70;;;;;;;0.29;74.63;97551.14;101750;1316;61215;-23
2021/12/20 09:56:10;;;;;;;1.10;0.60;;;;;;;0.04;74.92;97552.09;101782;1317;61795;-23
2021/12/20 09:58:40;;;;;;;0.70;0.70;;;;;;;-0.04;75.20;97555.91;101760;1319;73940;-23
2021/12/20 10:01:10;;;;;;;3.10;1.50;;;;;;;0.02;76.09;97554.55;101760;1322;73326;-23
2021/12/20 10:03:38;;;;;;;0.90;0.60;;;;;;;-0.04;76.02;97552.02;101751;1316;74501;-23
2021/12/20 10:06:07;;;;;;;0.50;0.50;;;;;;;0.70;73.93;97546.17;101913;1316;61194;-23
2021/12/20 10:18:12;;;;;;;0.70;0.60;;;;;;;0.87;71.10;97537.67;99488;1336;615317;-18
2021/12/20 10:20:40;;;;;;;1.20;0.80;;;;;;;0.99;70.92;97546.02;100732;1330;61243;-18
2021/12/20 10:23:25;;;;;;;0.80;0.60;;;;;;;0.90;71.62;97543.38;101116;1324;61123;-18
2021/12/20 10:26:09;;;;;;;1.00;0.50;;;;;;;1.21;71.61;97545.05;101163;1324;72393;-18
2021/12/20 10:28:37;;;;;;;0.80;0.60;;;;;;;1.09;71.14;97542.73;100623;1330;75991;-18
2021/12/20 10:31:08;;;;;;;1.50;0.70;;;;;;;1.13;72.07;97549.02;101124;1326;428502;-18
2021/12/20 10:33:35;;;;;;;0.80;0.50;;;;;;;1.36;70.77;97539.11;101333;1323;61280;-18
2021/12/20 10:36:05;;;;;;;0.40;0.40;;;;;;;1.34;71.03;97548.48;101347;1321;61246;-18
2021/12/20 10:38:42;;;;;;;1.00;0.80;;;;;;;0.92;71.12;97545.81;101230;1321;74920;-18
2021/12/20 10:41:27;;;;;;;0.50;0.40;;;;;;;0.51;73.51;97550.13;101286;1327;75211;-18
2021/12/20 10:43:59;;;;;;;0.70;0.60;;;;;;;0.32;74.36;97547.73;101251;1323;74345;-18
2021/12/20 10:46:34;;;;;;;0.30;0.30;;;;;;;0.31;74.96;97551.38;101265;1329;61274;-18
2021/12/20 10:49:06;;;;;;;0.90;0.40;;;;;;;0.77;73.87;97551.48;101280;1323;61358;-18
2021/12/20 10:51:36;;;;;;;0.50;0.50;;;;;;;1.20;71.69;97547.71;101262;1326;73527;-18
2021/12/20 10:54:09;;;;;;;1.00;0.80;;;;;;;1.07;71.05;97552.45;101316;1323;75096;-19
2021/12/20 10:56:51;;;;;;;1.20;0.70;;;;;;;0.77;73.56;97556.49;100988;1323;74644;-18
2021/12/20 10:59:23;;;;;;;1.20;0.60;;;;;;;0.30;73.26;97553.67;101290;1328;61328;-18
2021/12/20 11:04:23;;;;;;;1.10;0.80;;;;;;;0.07;74.65;97549.13;101330;1323;74705;-18
2021/12/20 11:10:03;;;;;;;0.80;0.50;;;;;;;0.15;75.36;97541.45;101024;1329;74585;-18
2021/12/20 11:12:32;;;;;;;0.60;0.40;;;;;;;0.91;73.38;97544.27;100855;1330;61214;-18
2021/12/20 11:15:03;;;;;;;0.60;0.50;;;;;;;1.14;72.96;97540.38;101328;1323;61285;-19
2021/12/20 11:17:45;;;;;;;0.60;0.40;;;;;;;1.12;73.41;97541.04;101257;1324;73248;-18
2021/12/20 11:20:19;;;;;;;1.00;0.70;;;;;;;0.71;73.60;97540.98;101281;1326;74819;-19
2021/12/20 11:22:45;;;;;;;0.70;0.30;;;;;;;0.65;74.71;97543.23;101125;1330;74497;-19
2021/12/20 11:25:14;;;;;;;0.80;0.70;;;;;;;0.57;74.83;97537.29;101146;1326;61278;-19
2021/12/20 11:27:51;;;;;;;0.50;0.50;;;;;;;0.45;76.11;97552.86;101277;1326;61556;-18
2021/12/20 11:30:23;;;;;;;0.60;0.60;;;;;;;0.62;75.45;97549.11;101194;1323;74758;-18
2021/12/20 11:32:50;;;;;;;0.30;0.20;;;;;;;0.74;74.00;97546.12;101262;1324;76145;-19
2021/12/20 11:35:19;;;;;;;3.10;0.90;;;;;;;0.86;72.86;97547.36;101268;1326;74316;-19
2021/12/20 11:37:46;;;;;;;0.40;0.40;;;;;;;0.82;72.84;97541.48;101038;1326;62177;-18
2021/12/20 11:40:15;;;;;;;1.10;0.50;;;;;;;0.66;74.32;97549.65;101077;1328;61235;-18
2021/12/20 11:42:42;;;;;;;0.90;0.60;;;;;;;0.42;75.61;97551.35;100964;1326;74056;-19
2021/12/20 11:45:10;;;;;;;0.70;0.60;;;;;;;0.22;76.29;97548.88;102018;1317;75921;-19
2021/12/20 11:47:59;;;;;;;1.00;0.80;;;;;;;-0.21;76.81;97544.52;101705;1320;72279;-19
2021/12/20 11:50:37;;;;;;;0.90;0.70;;;;;;;-0.10;76.39;97545.55;101727;1318;63115;-19
2021/12/20 11:53:09;;;;;;;0.60;0.60;;;;;;;0.20;75.62;97558.05;101983;1317;61206;-19
2021/12/20 11:55:39;;;;;;;0.70;0.50;;;;;;;0.29;74.69;97558.81;101904;1316;73125;-18
2021/12/20 11:58:28;;;;;;;0.70;0.60;;;;;;;0.12;75.24;97558.20;101717;1316;75969;-19
2021/12/20 12:01:00;;;;;;;1.20;0.70;;;;;;;-0.05;76.18;97565.20;101809;1319;74517;-19
2021/12/20 12:03:33;;;;;;;1.10;0.50;;;;;;;-0.31;76.39;97557.75;101783;1319;61131;-19
2021/12/20 12:06:01;;;;;;;0.80;0.60;;;;;;;-0.49;77.45;97567.31;101938;1319;61832;-19
2021/12/20 12:08:48;;;;;;;0.80;0.60;;;;;;;-0.21;76.46;97554.61;102111;1318;73312;-18
2021/12/20 12:11:15;;;;;;;1.20;0.80;;;;;;;-0.01;75.21;97553.21;101981;1317;76047;-19
2021/12/20 12:13:50;;;;;;;0.60;0.60;;;;;;;0.01;74.92;97563.84;102006;1318;74539;-19
2021/12/20 12:16:30;;;;;;;0.60;0.60;;;;;;;-0.06;74.65;97562.22;102178;1317;61217;-19